KBAD

Barksdale Air Force Base

Airport
ICAO code
KBAD
Summary
ICAO Region
NAM
ICAO Territory
Location

Bossier City, Louisiana,

Coordinates
32° 30' 7" N , 93° 39' 26" W
KCC
Metar
Observation
KBAD 070955Z AUTO 00000KT 10SM CLR 15/13 A3013 RMK AO2 SLP206 T01500132
Station
Barksdale Air Force Base
Date/Time
2022-10-07 09:55:00
Wind direction
Wind speed
00 kts
Lowest cloud amount
n/a
Temperature
15°C
Dew point
13.2°C
Humidity
88%
Weather condition
n/a

Description

Barksdale Air Force Base is a United States Air Force installation located 8 km east-southeast of Bossier City, Louisiana.

Climatology

Humid “subtropical” climate (Köppen climate classification Cfa) - characterized by hot, humid summers and cool winters. Significant amounts of precipitation occur in all seasons in most areas. Winter rainfall (and sometimes snowfall) is associated with large storms that the westerlies steer from west to east. Most summer rainfall occurs during thunderstorms and occasional tropical storms (hurricanes).

Airport map

Aerial View

SKYbrary Partners:

Safety knowledge contributed by: